sensor_id;sensor_type;location;lat;lon;timestamp;P1;durP1;ratioP1;P2;durP2;ratioP2
13999;SDS011;7075;53.574;10.054;2023-06-26T00:00:06;8.30;;;7.50;;
13999;SDS011;7075;53.574;10.054;2023-06-26T00:02:32;7.27;;;6.67;;
13999;SDS011;7075;53.574;10.054;2023-06-26T00:05:00;8.57;;;7.53;;
13999;SDS011;7075;53.574;10.054;2023-06-26T00:07:29;8.37;;;7.57;;
13999;SDS011;7075;53.574;10.054;2023-06-26T00:09:57;8.43;;;7.23;;
13999;SDS011;7075;53.574;10.054;2023-06-26T00:12:23;8.33;;;7.53;;
13999;SDS011;7075;53.574;10.054;2023-06-26T00:14:50;8.40;;;7.60;;
13999;SDS011;7075;53.574;10.054;2023-06-26T00:17:16;8.43;;;7.63;;
13999;SDS011;7075;53.574;10.054;2023-06-26T00:19:41;8.17;;;7.37;;
13999;SDS011;7075;53.574;10.054;2023-06-26T00:22:07;8.17;;;7.37;;
13999;SDS011;7075;53.574;10.054;2023-06-26T00:24:32;8.07;;;7.37;;
13999;SDS011;7075;53.574;10.054;2023-06-26T00:26:58;8.17;;;7.47;;
13999;SDS011;7075;53.574;10.054;2023-06-26T00:29:23;9.60;;;8.67;;
13999;SDS011;7075;53.574;10.054;2023-06-26T00:31:49;9.03;;;8.13;;
13999;SDS011;7075;53.574;10.054;2023-06-26T00:34:16;8.20;;;7.33;;
13999;SDS011;7075;53.574;10.054;2023-06-26T00:36:42;8.67;;;7.77;;
13999;SDS011;7075;53.574;10.054;2023-06-26T00:39:11;8.10;;;7.40;;
13999;SDS011;7075;53.574;10.054;2023-06-26T00:41:38;7.87;;;7.13;;
13999;SDS011;7075;53.574;10.054;2023-06-26T00:44:07;8.50;;;7.80;;
13999;SDS011;7075;53.574;10.054;2023-06-26T00:46:32;7.97;;;7.27;;
13999;SDS011;7075;53.574;10.054;2023-06-26T00:49:00;8.40;;;7.67;;
13999;SDS011;7075;53.574;10.054;2023-06-26T00:51:30;7.50;;;6.90;;
13999;SDS011;7075;53.574;10.054;2023-06-26T00:53:56;8.17;;;7.47;;
13999;SDS011;7075;53.574;10.054;2023-06-26T00:56:22;8.17;;;7.47;;
13999;SDS011;7075;53.574;10.054;2023-06-26T00:58:49;7.63;;;6.90;;
13999;SDS011;7075;53.574;10.054;2023-06-26T01:01:16;7.80;;;7.10;;
13999;SDS011;7075;53.574;10.054;2023-06-26T01:03:44;8.63;;;7.83;;
13999;SDS011;7075;53.574;10.054;2023-06-26T01:06:13;7.77;;;7.07;;
13999;SDS011;7075;53.574;10.054;2023-06-26T01:08:42;8.80;;;8.00;;
13999;SDS011;7075;53.574;10.054;2023-06-26T01:11:08;8.03;;;7.30;;
13999;SDS011;7075;53.574;10.054;2023-06-26T01:13:37;7.70;;;7.00;;
13999;SDS011;7075;53.574;10.054;2023-06-26T01:16:04;8.60;;;7.70;;
13999;SDS011;7075;53.574;10.054;2023-06-26T01:18:30;7.77;;;7.07;;
13999;SDS011;7075;53.574;10.054;2023-06-26T01:20:57;8.20;;;7.33;;
13999;SDS011;7075;53.574;10.054;2023-06-26T01:26:23;8.23;;;7.43;;
13999;SDS011;7075;53.574;10.054;2023-06-26T01:28:51;8.77;;;7.37;;
13999;SDS011;7075;53.574;10.054;2023-06-26T01:31:19;8.40;;;7.60;;
13999;SDS011;7075;53.574;10.054;2023-06-26T01:33:47;8.70;;;7.80;;
13999;SDS011;7075;53.574;10.054;2023-06-26T01:36:15;9.00;;;8.10;;
13999;SDS011;7075;53.574;10.054;2023-06-26T01:38:42;8.57;;;7.70;;
13999;SDS011;7075;53.574;10.054;2023-06-26T01:41:08;7.93;;;7.13;;
13999;SDS011;7075;53.574;10.054;2023-06-26T01:46:52;8.30;;;7.40;;
13999;SDS011;7075;53.574;10.054;2023-06-26T01:57:59;8.83;;;7.77;;
13999;SDS011;7075;53.574;10.054;2023-06-26T02:00:25;8.20;;;7.50;;
13999;SDS011;7075;53.574;10.054;2023-06-26T02:02:52;8.20;;;7.37;;
13999;SDS011;7075;53.574;10.054;2023-06-26T02:05:18;8.67;;;7.87;;
13999;SDS011;7075;53.574;10.054;2023-06-26T02:07:45;11.30;;;7.87;;
13999;SDS011;7075;53.574;10.054;2023-06-26T02:10:11;8.37;;;7.67;;
13999;SDS011;7075;53.574;10.054;2023-06-26T02:12:39;7.73;;;7.03;;
13999;SDS011;7075;53.574;10.054;2023-06-26T02:15:06;7.87;;;7.17;;
13999;SDS011;7075;53.574;10.054;2023-06-26T02:17:33;8.83;;;8.03;;
13999;SDS011;7075;53.574;10.054;2023-06-26T02:19:59;8.23;;;7.43;;
13999;SDS011;7075;53.574;10.054;2023-06-26T02:22:26;8.33;;;7.50;;
13999;SDS011;7075;53.574;10.054;2023-06-26T02:24:53;8.27;;;7.47;;
13999;SDS011;7075;53.574;10.054;2023-06-26T02:27:19;7.77;;;6.93;;
13999;SDS011;7075;53.574;10.054;2023-06-26T02:29:46;8.30;;;7.50;;
13999;SDS011;7075;53.574;10.054;2023-06-26T02:32:13;8.60;;;7.67;;
13999;SDS011;7075;53.574;10.054;2023-06-26T02:34:40;8.30;;;7.00;;
13999;SDS011;7075;53.574;10.054;2023-06-26T02:37:05;7.43;;;6.63;;
13999;SDS011;7075;53.574;10.054;2023-06-26T02:39:32;7.77;;;7.07;;
13999;SDS011;7075;53.574;10.054;2023-06-26T02:41:59;7.50;;;6.90;;
13999;SDS011;7075;53.574;10.054;2023-06-26T02:44:38;9.70;;;7.33;;
13999;SDS011;7075;53.574;10.054;2023-06-26T02:47:04;7.80;;;7.17;;
13999;SDS011;7075;53.574;10.054;2023-06-26T02:49:31;7.00;;;6.30;;
13999;SDS011;7075;53.574;10.054;2023-06-26T02:51:57;7.20;;;6.40;;
13999;SDS011;7075;53.574;10.054;2023-06-26T02:54:24;11.27;;;6.77;;
13999;SDS011;7075;53.574;10.054;2023-06-26T02:56:49;8.00;;;7.20;;
13999;SDS011;7075;53.574;10.054;2023-06-26T02:59:15;7.57;;;6.80;;
13999;SDS011;7075;53.574;10.054;2023-06-26T03:01:41;7.63;;;6.80;;
13999;SDS011;7075;53.574;10.054;2023-06-26T03:04:07;7.63;;;6.53;;
13999;SDS011;7075;53.574;10.054;2023-06-26T03:06:34;7.57;;;6.77;;
13999;SDS011;7075;53.574;10.054;2023-06-26T03:09:00;8.37;;;7.03;;
13999;SDS011;7075;53.574;10.054;2023-06-26T03:11:25;7.40;;;6.70;;
13999;SDS011;7075;53.574;10.054;2023-06-26T03:13:51;7.73;;;6.93;;
13999;SDS011;7075;53.574;10.054;2023-06-26T03:16:16;9.00;;;7.17;;
13999;SDS011;7075;53.574;10.054;2023-06-26T03:18:42;7.47;;;6.77;;
13999;SDS011;7075;53.574;10.054;2023-06-26T03:24:00;7.03;;;6.47;;
13999;SDS011;7075;53.574;10.054;2023-06-26T03:26:26;7.33;;;6.63;;
13999;SDS011;7075;53.574;10.054;2023-06-26T03:28:52;7.37;;;6.67;;
13999;SDS011;7075;53.574;10.054;2023-06-26T03:31:19;7.37;;;6.77;;
13999;SDS011;7075;53.574;10.054;2023-06-26T03:33:46;8.27;;;6.90;;
13999;SDS011;7075;53.574;10.054;2023-06-26T03:36:12;7.73;;;7.03;;
13999;SDS011;7075;53.574;10.054;2023-06-26T03:38:37;7.37;;;6.77;;
13999;SDS011;7075;53.574;10.054;2023-06-26T03:41:03;7.13;;;6.43;;
13999;SDS011;7075;53.574;10.054;2023-06-26T03:43:30;7.90;;;6.90;;
13999;SDS011;7075;53.574;10.054;2023-06-26T03:45:55;7.80;;;7.10;;
13999;SDS011;7075;53.574;10.054;2023-06-26T03:48:22;7.90;;;7.10;;
13999;SDS011;7075;53.574;10.054;2023-06-26T03:50:49;7.30;;;6.70;;
13999;SDS011;7075;53.574;10.054;2023-06-26T03:53:17;7.30;;;6.60;;
13999;SDS011;7075;53.574;10.054;2023-06-26T03:55:43;7.27;;;6.33;;
13999;SDS011;7075;53.574;10.054;2023-06-26T03:58:10;8.50;;;6.50;;
13999;SDS011;7075;53.574;10.054;2023-06-26T04:00:36;7.60;;;6.90;;
13999;SDS011;7075;53.574;10.054;2023-06-26T04:03:01;7.57;;;6.90;;
13999;SDS011;7075;53.574;10.054;2023-06-26T04:05:28;10.33;;;6.57;;
13999;SDS011;7075;53.574;10.054;2023-06-26T04:07:55;13.23;;;6.67;;
13999;SDS011;7075;53.574;10.054;2023-06-26T04:10:22;7.67;;;6.97;;
13999;SDS011;7075;53.574;10.054;2023-06-26T04:12:49;7.10;;;6.37;;
13999;SDS011;7075;53.574;10.054;2023-06-26T04:15:14;10.27;;;6.87;;
13999;SDS011;7075;53.574;10.054;2023-06-26T04:17:40;7.27;;;6.57;;
13999;SDS011;7075;53.574;10.054;2023-06-26T04:20:06;8.17;;;7.47;;
13999;SDS011;7075;53.574;10.054;2023-06-26T04:22:33;9.47;;;6.20;;
13999;SDS011;7075;53.574;10.054;2023-06-26T04:25:01;6.80;;;6.17;;
13999;SDS011;7075;53.574;10.054;2023-06-26T04:27:30;7.90;;;7.20;;
13999;SDS011;7075;53.574;10.054;2023-06-26T04:29:57;7.70;;;6.97;;
13999;SDS011;7075;53.574;10.054;2023-06-26T04:32:24;8.57;;;7.20;;
13999;SDS011;7075;53.574;10.054;2023-06-26T04:34:49;9.80;;;6.37;;
13999;SDS011;7075;53.574;10.054;2023-06-26T04:37:16;8.67;;;6.80;;
13999;SDS011;7075;53.574;10.054;2023-06-26T04:39:42;6.90;;;6.13;;
13999;SDS011;7075;53.574;10.054;2023-06-26T04:42:09;7.93;;;7.13;;
13999;SDS011;7075;53.574;10.054;2023-06-26T04:44:38;8.27;;;7.47;;
13999;SDS011;7075;53.574;10.054;2023-06-26T04:47:06;7.93;;;7.13;;
13999;SDS011;7075;53.574;10.054;2023-06-26T04:49:32;7.50;;;6.80;;
13999;SDS011;7075;53.574;10.054;2023-06-26T04:51:58;9.33;;;7.07;;
13999;SDS011;7075;53.574;10.054;2023-06-26T04:54:25;7.47;;;6.53;;
13999;SDS011;7075;53.574;10.054;2023-06-26T04:56:52;7.23;;;6.47;;
13999;SDS011;7075;53.574;10.054;2023-06-26T04:59:21;7.43;;;6.70;;
13999;SDS011;7075;53.574;10.054;2023-06-26T05:01:46;7.37;;;6.63;;
13999;SDS011;7075;53.574;10.054;2023-06-26T05:04:14;7.37;;;6.67;;
13999;SDS011;7075;53.574;10.054;2023-06-26T05:06:43;8.13;;;6.70;;
13999;SDS011;7075;53.574;10.054;2023-06-26T05:09:08;7.97;;;6.37;;
13999;SDS011;7075;53.574;10.054;2023-06-26T05:11:37;6.50;;;5.90;;
13999;SDS011;7075;53.574;10.054;2023-06-26T05:14:03;10.10;;;6.80;;
13999;SDS011;7075;53.574;10.054;2023-06-26T05:16:28;7.50;;;6.70;;
13999;SDS011;7075;53.574;10.054;2023-06-26T05:18:55;6.70;;;6.10;;
13999;SDS011;7075;53.574;10.054;2023-06-26T05:21:21;8.13;;;7.00;;
13999;SDS011;7075;53.574;10.054;2023-06-26T05:23:55;6.80;;;6.10;;
13999;SDS011;7075;53.574;10.054;2023-06-26T05:26:24;7.77;;;6.70;;
13999;SDS011;7075;53.574;10.054;2023-06-26T05:28:52;9.97;;;7.00;;
13999;SDS011;7075;53.574;10.054;2023-06-26T05:31:18;9.27;;;7.03;;
13999;SDS011;7075;53.574;10.054;2023-06-26T05:33:44;7.93;;;6.53;;
13999;SDS011;7075;53.574;10.054;2023-06-26T05:36:12;8.47;;;6.23;;
13999;SDS011;7075;53.574;10.054;2023-06-26T05:38:39;10.53;;;6.67;;
13999;SDS011;7075;53.574;10.054;2023-06-26T05:41:07;9.33;;;6.50;;
13999;SDS011;7075;53.574;10.054;2023-06-26T05:43:34;6.80;;;6.13;;
13999;SDS011;7075;53.574;10.054;2023-06-26T05:46:00;8.20;;;6.03;;
13999;SDS011;7075;53.574;10.054;2023-06-26T05:48:26;5.83;;;5.23;;
13999;SDS011;7075;53.574;10.054;2023-06-26T05:50:52;7.60;;;6.80;;
13999;SDS011;7075;53.574;10.054;2023-06-26T05:53:18;9.03;;;6.03;;
13999;SDS011;7075;53.574;10.054;2023-06-26T05:55:44;10.00;;;7.00;;
13999;SDS011;7075;53.574;10.054;2023-06-26T05:58:11;6.47;;;5.70;;
13999;SDS011;7075;53.574;10.054;2023-06-26T06:00:39;6.30;;;5.43;;
13999;SDS011;7075;53.574;10.054;2023-06-26T06:03:09;8.50;;;6.67;;
13999;SDS011;7075;53.574;10.054;2023-06-26T06:05:35;6.73;;;6.03;;
13999;SDS011;7075;53.574;10.054;2023-06-26T06:08:01;6.73;;;5.93;;
13999;SDS011;7075;53.574;10.054;2023-06-26T06:10:28;6.57;;;5.40;;
13999;SDS011;7075;53.574;10.054;2023-06-26T06:12:54;7.67;;;6.87;;
13999;SDS011;7075;53.574;10.054;2023-06-26T06:15:21;7.60;;;6.50;;
13999;SDS011;7075;53.574;10.054;2023-06-26T06:17:48;9.40;;;6.63;;
13999;SDS011;7075;53.574;10.054;2023-06-26T06:20:16;8.40;;;6.07;;
13999;SDS011;7075;53.574;10.054;2023-06-26T06:22:45;6.90;;;6.20;;
13999;SDS011;7075;53.574;10.054;2023-06-26T06:25:11;9.60;;;7.30;;
13999;SDS011;7075;53.574;10.054;2023-06-26T06:27:38;6.87;;;6.17;;
13999;SDS011;7075;53.574;10.054;2023-06-26T06:30:04;8.43;;;6.60;;
13999;SDS011;7075;53.574;10.054;2023-06-26T06:32:32;7.43;;;5.93;;
13999;SDS011;7075;53.574;10.054;2023-06-26T06:34:58;6.50;;;5.90;;
13999;SDS011;7075;53.574;10.054;2023-06-26T06:37:24;8.53;;;6.30;;
13999;SDS011;7075;53.574;10.054;2023-06-26T06:39:51;9.03;;;6.60;;
13999;SDS011;7075;53.574;10.054;2023-06-26T06:42:17;9.37;;;6.63;;
13999;SDS011;7075;53.574;10.054;2023-06-26T06:44:43;7.50;;;5.83;;
13999;SDS011;7075;53.574;10.054;2023-06-26T06:47:09;9.10;;;6.53;;
13999;SDS011;7075;53.574;10.054;2023-06-26T06:49:36;7.07;;;5.97;;
13999;SDS011;7075;53.574;10.054;2023-06-26T06:52:03;7.20;;;6.03;;
13999;SDS011;7075;53.574;10.054;2023-06-26T06:54:31;6.33;;;5.73;;
13999;SDS011;7075;53.574;10.054;2023-06-26T06:56:56;6.67;;;5.83;;
13999;SDS011;7075;53.574;10.054;2023-06-26T06:59:22;9.60;;;6.67;;
13999;SDS011;7075;53.574;10.054;2023-06-26T07:01:48;6.10;;;5.60;;
13999;SDS011;7075;53.574;10.054;2023-06-26T07:04:13;6.60;;;5.30;;
13999;SDS011;7075;53.574;10.054;2023-06-26T07:06:39;8.07;;;6.50;;
13999;SDS011;7075;53.574;10.054;2023-06-26T07:09:07;7.43;;;6.67;;
13999;SDS011;7075;53.574;10.054;2023-06-26T07:11:32;7.20;;;6.13;;
13999;SDS011;7075;53.574;10.054;2023-06-26T07:13:58;7.07;;;6.10;;
13999;SDS011;7075;53.574;10.054;2023-06-26T07:16:24;6.77;;;6.07;;
13999;SDS011;7075;53.574;10.054;2023-06-26T07:18:50;5.63;;;5.13;;
13999;SDS011;7075;53.574;10.054;2023-06-26T07:21:17;6.10;;;5.60;;
13999;SDS011;7075;53.574;10.054;2023-06-26T07:23:44;6.37;;;5.77;;
13999;SDS011;7075;53.574;10.054;2023-06-26T07:26:09;6.90;;;5.50;;
13999;SDS011;7075;53.574;10.054;2023-06-26T07:28:36;6.47;;;5.87;;
13999;SDS011;7075;53.574;10.054;2023-06-26T07:31:03;6.40;;;5.73;;
13999;SDS011;7075;53.574;10.054;2023-06-26T07:33:30;6.60;;;5.77;;
13999;SDS011;7075;53.574;10.054;2023-06-26T07:35:56;8.10;;;6.10;;
13999;SDS011;7075;53.574;10.054;2023-06-26T07:38:23;7.53;;;6.83;;
13999;SDS011;7075;53.574;10.054;2023-06-26T07:40:49;7.43;;;6.73;;
13999;SDS011;7075;53.574;10.054;2023-06-26T07:43:14;9.33;;;6.03;;
13999;SDS011;7075;53.574;10.054;2023-06-26T07:45:41;8.43;;;6.77;;
13999;SDS011;7075;53.574;10.054;2023-06-26T07:48:08;8.10;;;6.93;;
13999;SDS011;7075;53.574;10.054;2023-06-26T07:50:36;7.97;;;7.17;;
13999;SDS011;7075;53.574;10.054;2023-06-26T07:53:01;9.67;;;6.30;;
13999;SDS011;7075;53.574;10.054;2023-06-26T07:55:27;7.53;;;6.83;;
13999;SDS011;7075;53.574;10.054;2023-06-26T07:57:54;7.23;;;6.37;;
13999;SDS011;7075;53.574;10.054;2023-06-26T08:00:20;7.70;;;7.00;;
13999;SDS011;7075;53.574;10.054;2023-06-26T08:02:47;6.90;;;6.30;;
13999;SDS011;7075;53.574;10.054;2023-06-26T08:05:12;7.80;;;7.10;;
13999;SDS011;7075;53.574;10.054;2023-06-26T08:07:40;7.17;;;6.43;;
13999;SDS011;7075;53.574;10.054;2023-06-26T08:10:07;7.20;;;6.50;;
13999;SDS011;7075;53.574;10.054;2023-06-26T08:12:32;9.63;;;6.70;;
13999;SDS011;7075;53.574;10.054;2023-06-26T08:15:00;8.03;;;6.40;;
13999;SDS011;7075;53.574;10.054;2023-06-26T08:17:27;8.57;;;6.80;;
13999;SDS011;7075;53.574;10.054;2023-06-26T08:19:53;13.53;;;7.03;;
13999;SDS011;7075;53.574;10.054;2023-06-26T08:22:20;7.57;;;6.80;;
13999;SDS011;7075;53.574;10.054;2023-06-26T08:24:45;7.77;;;7.00;;
13999;SDS011;7075;53.574;10.054;2023-06-26T08:27:12;8.03;;;6.53;;
13999;SDS011;7075;53.574;10.054;2023-06-26T08:29:39;6.90;;;6.30;;
13999;SDS011;7075;53.574;10.054;2023-06-26T08:32:05;8.87;;;7.10;;
13999;SDS011;7075;53.574;10.054;2023-06-26T08:34:32;9.83;;;6.90;;
13999;SDS011;7075;53.574;10.054;2023-06-26T08:36:57;6.77;;;6.17;;
13999;SDS011;7075;53.574;10.054;2023-06-26T08:39:24;8.60;;;6.20;;
13999;SDS011;7075;53.574;10.054;2023-06-26T08:41:49;6.67;;;6.07;;
13999;SDS011;7075;53.574;10.054;2023-06-26T08:44:16;8.90;;;6.70;;
13999;SDS011;7075;53.574;10.054;2023-06-26T08:46:44;7.97;;;6.57;;
13999;SDS011;7075;53.574;10.054;2023-06-26T08:49:53;6.67;;;5.93;;
13999;SDS011;7075;53.574;10.054;2023-06-26T08:52:13;8.10;;;7.30;;
13999;SDS011;7075;53.574;10.054;2023-06-26T08:54:45;7.60;;;6.47;;
13999;SDS011;7075;53.574;10.054;2023-06-26T08:57:17;10.73;;;6.70;;
13999;SDS011;7075;53.574;10.054;2023-06-26T08:59:44;7.30;;;6.37;;
13999;SDS011;7075;53.574;10.054;2023-06-26T09:02:10;12.37;;;6.70;;
13999;SDS011;7075;53.574;10.054;2023-06-26T09:04:37;9.70;;;7.00;;
13999;SDS011;7075;53.574;10.054;2023-06-26T09:07:05;6.73;;;5.97;;
13999;SDS011;7075;53.574;10.054;2023-06-26T09:09:31;7.47;;;6.43;;
13999;SDS011;7075;53.574;10.054;2023-06-26T09:11:56;8.33;;;6.87;;
13999;SDS011;7075;53.574;10.054;2023-06-26T09:14:22;9.18;;;7.38;;
13999;SDS011;7075;53.574;10.054;2023-06-26T09:16:50;9.70;;;7.77;;
13999;SDS011;7075;53.574;10.054;2023-06-26T09:19:16;8.07;;;7.35;;
13999;SDS011;7075;53.574;10.054;2023-06-26T09:21:42;9.90;;;7.77;;
13999;SDS011;7075;53.574;10.054;2023-06-26T09:24:08;8.57;;;7.67;;
13999;SDS011;7075;53.574;10.054;2023-06-26T09:26:35;8.98;;;8.07;;
13999;SDS011;7075;53.574;10.054;2023-06-26T09:29:04;12.75;;;9.10;;
13999;SDS011;7075;53.574;10.054;2023-06-26T09:31:32;9.95;;;8.88;;
13999;SDS011;7075;53.574;10.054;2023-06-26T09:33:59;11.13;;;9.63;;
13999;SDS011;7075;53.574;10.054;2023-06-26T09:36:26;11.93;;;9.50;;
13999;SDS011;7075;53.574;10.054;2023-06-26T09:38:53;11.55;;;9.05;;
13999;SDS011;7075;53.574;10.054;2023-06-26T09:41:20;10.73;;;9.73;;
13999;SDS011;7075;53.574;10.054;2023-06-26T09:43:50;10.50;;;9.40;;
13999;SDS011;7075;53.574;10.054;2023-06-26T09:46:26;13.53;;;8.67;;
13999;SDS011;7075;53.574;10.054;2023-06-26T09:49:04;12.43;;;9.10;;
13999;SDS011;7075;53.574;10.054;2023-06-26T09:51:31;9.50;;;8.60;;
13999;SDS011;7075;53.574;10.054;2023-06-26T09:54:01;9.97;;;8.97;;
13999;SDS011;7075;53.574;10.054;2023-06-26T09:56:28;11.02;;;9.07;;
13999;SDS011;7075;53.574;10.054;2023-06-26T09:58:58;10.87;;;8.87;;
13999;SDS011;7075;53.574;10.054;2023-06-26T10:01:28;14.80;;;9.17;;
13999;SDS011;7075;53.574;10.054;2023-06-26T10:03:56;11.80;;;9.33;;
13999;SDS011;7075;53.574;10.054;2023-06-26T10:06:31;12.33;;;9.97;;
13999;SDS011;7075;53.574;10.054;2023-06-26T10:09:00;10.47;;;9.40;;
13999;SDS011;7075;53.574;10.054;2023-06-26T10:11:29;11.33;;;9.90;;
13999;SDS011;7075;53.574;10.054;2023-06-26T10:14:00;9.77;;;8.70;;
13999;SDS011;7075;53.574;10.054;2023-06-26T10:16:27;14.57;;;9.90;;
13999;SDS011;7075;53.574;10.054;2023-06-26T10:18:58;18.37;;;11.20;;
13999;SDS011;7075;53.574;10.054;2023-06-26T10:21:28;13.00;;;11.23;;
13999;SDS011;7075;53.574;10.054;2023-06-26T10:23:55;14.70;;;12.37;;
13999;SDS011;7075;53.574;10.054;2023-06-26T10:26:22;13.33;;;11.90;;
13999;SDS011;7075;53.574;10.054;2023-06-26T10:28:49;12.83;;;10.27;;
13999;SDS011;7075;53.574;10.054;2023-06-26T10:31:18;17.00;;;11.17;;
13999;SDS011;7075;53.574;10.054;2023-06-26T10:33:47;13.47;;;9.83;;
13999;SDS011;7075;53.574;10.054;2023-06-26T10:36:15;14.07;;;8.17;;
13999;SDS011;7075;53.574;10.054;2023-06-26T10:38:51;11.20;;;7.60;;
13999;SDS011;7075;53.574;10.054;2023-06-26T10:41:21;9.80;;;7.50;;
13999;SDS011;7075;53.574;10.054;2023-06-26T10:46:52;7.17;;;6.47;;
13999;SDS011;7075;53.574;10.054;2023-06-26T10:49:19;12.23;;;7.57;;
13999;SDS011;7075;53.574;10.054;2023-06-26T10:51:54;7.10;;;6.40;;
13999;SDS011;7075;53.574;10.054;2023-06-26T10:54:23;6.97;;;6.13;;
13999;SDS011;7075;53.574;10.054;2023-06-26T10:56:54;7.77;;;7.03;;
13999;SDS011;7075;53.574;10.054;2023-06-26T10:59:25;7.40;;;6.20;;
13999;SDS011;7075;53.574;10.054;2023-06-26T11:01:55;7.20;;;6.50;;
13999;SDS011;7075;53.574;10.054;2023-06-26T11:04:39;7.90;;;5.70;;
13999;SDS011;7075;53.574;10.054;2023-06-26T11:12:37;10.47;;;7.20;;
13999;SDS011;7075;53.574;10.054;2023-06-26T11:15:07;10.67;;;7.10;;
13999;SDS011;7075;53.574;10.054;2023-06-26T11:17:37;9.63;;;7.97;;
13999;SDS011;7075;53.574;10.054;2023-06-26T11:20:07;11.47;;;7.27;;
13999;SDS011;7075;53.574;10.054;2023-06-26T11:22:35;12.83;;;7.53;;
13999;SDS011;7075;53.574;10.054;2023-06-26T11:25:05;11.67;;;7.07;;
13999;SDS011;7075;53.574;10.054;2023-06-26T11:30:04;9.73;;;6.17;;
13999;SDS011;7075;53.574;10.054;2023-06-26T11:32:31;10.27;;;5.50;;
13999;SDS011;7075;53.574;10.054;2023-06-26T11:34:58;12.27;;;5.70;;
13999;SDS011;7075;53.574;10.054;2023-06-26T11:37:24;9.87;;;5.50;;
13999;SDS011;7075;53.574;10.054;2023-06-26T11:39:50;12.47;;;5.63;;
13999;SDS011;7075;53.574;10.054;2023-06-26T11:42:16;10.40;;;5.43;;
13999;SDS011;7075;53.574;10.054;2023-06-26T11:44:45;10.20;;;5.10;;
13999;SDS011;7075;53.574;10.054;2023-06-26T11:47:17;9.07;;;4.90;;
13999;SDS011;7075;53.574;10.054;2023-06-26T11:49:45;12.33;;;4.90;;
13999;SDS011;7075;53.574;10.054;2023-06-26T11:52:11;10.13;;;4.53;;
13999;SDS011;7075;53.574;10.054;2023-06-26T11:54:37;10.90;;;4.07;;
13999;SDS011;7075;53.574;10.054;2023-06-26T11:57:04;7.77;;;4.10;;
13999;SDS011;7075;53.574;10.054;2023-06-26T11:59:34;10.63;;;4.10;;
13999;SDS011;7075;53.574;10.054;2023-06-26T12:02:09;11.87;;;4.40;;
13999;SDS011;7075;53.574;10.054;2023-06-26T12:04:36;10.43;;;3.63;;
13999;SDS011;7075;53.574;10.054;2023-06-26T12:07:04;6.77;;;3.30;;
13999;SDS011;7075;53.574;10.054;2023-06-26T12:09:33;6.77;;;3.37;;
13999;SDS011;7075;53.574;10.054;2023-06-26T12:12:04;8.27;;;3.20;;
13999;SDS011;7075;53.574;10.054;2023-06-26T12:14:31;9.97;;;3.73;;
13999;SDS011;7075;53.574;10.054;2023-06-26T12:17:03;10.13;;;3.43;;
13999;SDS011;7075;53.574;10.054;2023-06-26T12:19:30;6.57;;;2.77;;
13999;SDS011;7075;53.574;10.054;2023-06-26T12:21:57;10.17;;;3.27;;
13999;SDS011;7075;53.574;10.054;2023-06-26T12:24:23;5.70;;;3.07;;
13999;SDS011;7075;53.574;10.054;2023-06-26T12:26:51;8.23;;;3.40;;
13999;SDS011;7075;53.574;10.054;2023-06-26T12:29:19;7.27;;;3.10;;
13999;SDS011;7075;53.574;10.054;2023-06-26T12:31:46;9.70;;;3.23;;
13999;SDS011;7075;53.574;10.054;2023-06-26T12:34:18;7.17;;;3.43;;
13999;SDS011;7075;53.574;10.054;2023-06-26T12:36:45;7.93;;;3.53;;
13999;SDS011;7075;53.574;10.054;2023-06-26T12:39:21;9.23;;;3.70;;
13999;SDS011;7075;53.574;10.054;2023-06-26T12:41:53;19.23;;;3.37;;
13999;SDS011;7075;53.574;10.054;2023-06-26T12:44:21;6.63;;;3.33;;
13999;SDS011;7075;53.574;10.054;2023-06-26T12:46:53;7.43;;;2.90;;
13999;SDS011;7075;53.574;10.054;2023-06-26T12:52:23;8.07;;;2.70;;
13999;SDS011;7075;53.574;10.054;2023-06-26T12:54:52;6.67;;;2.20;;
13999;SDS011;7075;53.574;10.054;2023-06-26T12:57:19;8.50;;;2.50;;
13999;SDS011;7075;53.574;10.054;2023-06-26T12:59:45;9.87;;;2.93;;
13999;SDS011;7075;53.574;10.054;2023-06-26T13:02:10;11.30;;;10.23;;
13999;SDS011;7075;53.574;10.054;2023-06-26T13:04:36;6.37;;;5.90;;
13999;SDS011;7075;53.574;10.054;2023-06-26T13:07:05;8.93;;;7.67;;
13999;SDS011;7075;53.574;10.054;2023-06-26T13:09:33;6.40;;;4.93;;
13999;SDS011;7075;53.574;10.054;2023-06-26T13:12:00;15.97;;;14.97;;
13999;SDS011;7075;53.574;10.054;2023-06-26T13:14:28;20.70;;;19.23;;
13999;SDS011;7075;53.574;10.054;2023-06-26T13:16:54;15.03;;;13.63;;
13999;SDS011;7075;53.574;10.054;2023-06-26T13:19:20;11.83;;;10.67;;
13999;SDS011;7075;53.574;10.054;2023-06-26T13:21:46;87.67;;;83.07;;
13999;SDS011;7075;53.574;10.054;2023-06-26T13:24:12;72.73;;;68.73;;
13999;SDS011;7075;53.574;10.054;2023-06-26T13:26:38;13.60;;;12.47;;
13999;SDS011;7075;53.574;10.054;2023-06-26T13:29:03;16.10;;;15.03;;
13999;SDS011;7075;53.574;10.054;2023-06-26T13:31:30;24.93;;;23.07;;
13999;SDS011;7075;53.574;10.054;2023-06-26T13:33:57;7.80;;;7.03;;
13999;SDS011;7075;53.574;10.054;2023-06-26T13:36:23;5.70;;;4.53;;
13999;SDS011;7075;53.574;10.054;2023-06-26T13:38:49;8.80;;;8.10;;
13999;SDS011;7075;53.574;10.054;2023-06-26T13:41:22;53.67;;;50.57;;
13999;SDS011;7075;53.574;10.054;2023-06-26T13:43:48;71.03;;;67.03;;
13999;SDS011;7075;53.574;10.054;2023-06-26T13:46:15;56.33;;;53.07;;
13999;SDS011;7075;53.574;10.054;2023-06-26T13:48:41;37.50;;;35.10;;
13999;SDS011;7075;53.574;10.054;2023-06-26T13:51:07;77.57;;;73.47;;
13999;SDS011;7075;53.574;10.054;2023-06-26T13:53:33;33.40;;;31.27;;
13999;SDS011;7075;53.574;10.054;2023-06-26T13:55:59;35.13;;;33.17;;
13999;SDS011;7075;53.574;10.054;2023-06-26T13:58:24;17.30;;;14.97;;
13999;SDS011;7075;53.574;10.054;2023-06-26T14:00:52;19.60;;;18.27;;
13999;SDS011;7075;53.574;10.054;2023-06-26T14:03:18;3.30;;;2.60;;
13999;SDS011;7075;53.574;10.054;2023-06-26T14:05:44;7.20;;;2.63;;
13999;SDS011;7075;53.574;10.054;2023-06-26T14:08:10;4.53;;;2.63;;
13999;SDS011;7075;53.574;10.054;2023-06-26T14:10:36;3.97;;;2.27;;
13999;SDS011;7075;53.574;10.054;2023-06-26T14:13:02;4.67;;;2.67;;
13999;SDS011;7075;53.574;10.054;2023-06-26T14:15:29;5.53;;;3.10;;
13999;SDS011;7075;53.574;10.054;2023-06-26T14:17:55;4.37;;;2.27;;
13999;SDS011;7075;53.574;10.054;2023-06-26T14:20:21;3.40;;;2.00;;
13999;SDS011;7075;53.574;10.054;2023-06-26T14:22:48;2.40;;;2.10;;
13999;SDS011;7075;53.574;10.054;2023-06-26T14:25:17;4.13;;;2.40;;
13999;SDS011;7075;53.574;10.054;2023-06-26T14:27:42;4.50;;;2.60;;
13999;SDS011;7075;53.574;10.054;2023-06-26T14:30:08;3.13;;;2.93;;
13999;SDS011;7075;53.574;10.054;2023-06-26T14:32:35;4.73;;;2.20;;
13999;SDS011;7075;53.574;10.054;2023-06-26T14:35:03;5.07;;;2.77;;
13999;SDS011;7075;53.574;10.054;2023-06-26T14:37:30;4.37;;;3.13;;
13999;SDS011;7075;53.574;10.054;2023-06-26T14:39:56;6.93;;;6.27;;
13999;SDS011;7075;53.574;10.054;2023-06-26T14:42:22;6.70;;;6.17;;
13999;SDS011;7075;53.574;10.054;2023-06-26T14:44:48;8.87;;;6.23;;
13999;SDS011;7075;53.574;10.054;2023-06-26T14:47:18;6.80;;;4.07;;
13999;SDS011;7075;53.574;10.054;2023-06-26T14:49:44;6.50;;;5.97;;
13999;SDS011;7075;53.574;10.054;2023-06-26T14:52:10;4.93;;;4.53;;
13999;SDS011;7075;53.574;10.054;2023-06-26T14:54:35;4.63;;;4.27;;
13999;SDS011;7075;53.574;10.054;2023-06-26T14:57:05;19.75;;;18.67;;
13999;SDS011;7075;53.574;10.054;2023-06-26T14:59:32;13.67;;;12.73;;
13999;SDS011;7075;53.574;10.054;2023-06-26T15:01:58;2.80;;;1.77;;
13999;SDS011;7075;53.574;10.054;2023-06-26T15:04:24;5.23;;;1.50;;
13999;SDS011;7075;53.574;10.054;2023-06-26T15:06:50;6.27;;;2.37;;
13999;SDS011;7075;53.574;10.054;2023-06-26T15:09:15;4.93;;;2.10;;
13999;SDS011;7075;53.574;10.054;2023-06-26T15:11:41;3.97;;;2.00;;
13999;SDS011;7075;53.574;10.054;2023-06-26T15:14:08;5.00;;;2.03;;